createdAt,value
2024-01-24T00:00:40.124Z,0.70
2024-01-24T00:03:21.780Z,0.60
2024-01-24T00:06:40.259Z,0.50
2024-01-24T00:09:27.189Z,0.60
2024-01-24T00:12:02.104Z,0.50
2024-01-24T00:14:37.827Z,0.70
2024-01-24T00:17:11.561Z,0.60
2024-01-24T00:19:40.112Z,0.70
2024-01-24T00:22:15.919Z,0.60
2024-01-24T00:24:50.385Z,0.60
2024-01-24T00:27:24.543Z,0.60
2024-01-24T00:29:59.110Z,0.70
2024-01-24T00:35:15.267Z,0.50
2024-01-24T00:38:09.051Z,0.50
2024-01-24T00:40:43.260Z,0.60
2024-01-24T00:43:35.270Z,0.60
2024-01-24T00:46:11.966Z,0.50
2024-01-24T00:48:40.615Z,0.50
2024-01-24T00:51:20.192Z,0.40
2024-01-24T00:53:57.844Z,0.50
2024-01-24T00:56:36.185Z,0.50
2024-01-24T00:59:24.855Z,0.70
2024-01-24T01:01:54.670Z,0.60
2024-01-24T01:04:28.523Z,0.70
2024-01-24T01:10:01.715Z,0.60
2024-01-24T01:12:43.561Z,0.70
2024-01-24T01:15:27.821Z,0.90
2024-01-24T01:21:19.448Z,0.70
2024-01-24T01:29:58.798Z,0.70
2024-01-24T01:35:49.584Z,0.30
2024-01-24T01:38:28.789Z,0.40
2024-01-24T01:41:22.548Z,0.50
2024-01-24T01:44:30.295Z,0.40
2024-01-24T01:50:11.246Z,0.20
2024-01-24T01:53:03.194Z,0.50
2024-01-24T01:59:57.586Z,0.30
2024-01-24T02:02:22.718Z,0.40
2024-01-24T02:05:29.862Z,0.30
2024-01-24T02:08:53.300Z,0.40
2024-01-24T02:14:08.361Z,0.40
2024-01-24T02:16:44.186Z,0.40
2024-01-24T02:19:38.546Z,0.40
2024-01-24T02:25:27.666Z,0.40
2024-01-24T02:28:53.761Z,0.30
2024-01-24T02:33:34.742Z,0.30
2024-01-24T02:36:03.618Z,0.30
2024-01-24T02:38:48.389Z,0.20
2024-01-24T02:41:41.112Z,0.30
2024-01-24T02:44:17.717Z,0.30
2024-01-24T02:49:48.161Z,0.30
2024-01-24T02:52:47.449Z,0.40
2024-01-24T02:55:33.828Z,0.30
2024-01-24T02:58:05.291Z,0.30
2024-01-24T03:01:03.541Z,0.20
2024-01-24T03:03:42.872Z,0.30
2024-01-24T03:09:10.710Z,0.20
2024-01-24T03:11:42.089Z,0.30
2024-01-24T03:17:19.517Z,0.20
2024-01-24T03:28:53.062Z,0.40
2024-01-24T03:31:36.500Z,0.20
2024-01-24T03:34:26.239Z,0.20
2024-01-24T03:40:43.103Z,0.30
2024-01-24T03:43:38.358Z,0.30
2024-01-24T03:46:10.435Z,0.30
2024-01-24T03:48:49.272Z,0.40
2024-01-24T03:51:22.891Z,0.30
2024-01-24T03:54:00.482Z,0.60
2024-01-24T03:59:24.495Z,0.30
2024-01-24T04:02:39.722Z,0.30
2024-01-24T04:09:15.480Z,0.40
2024-01-24T04:12:44.889Z,0.30
2024-01-24T04:15:39.504Z,0.20
2024-01-24T04:18:54.372Z,0.30
2024-01-24T04:26:42.121Z,0.40
2024-01-24T04:28:54.925Z,0.30
2024-01-24T04:31:31.618Z,0.30
2024-01-24T04:35:19.616Z,0.60
2024-01-24T04:37:53.682Z,0.40
2024-01-24T04:51:29.336Z,0.30
2024-01-24T04:54:01.294Z,0.40
2024-01-24T04:56:38.373Z,0.40
2024-01-24T04:59:25.513Z,0.30
2024-01-24T05:01:55.749Z,0.30
2024-01-24T05:04:47.286Z,0.30
2024-01-24T05:11:06.902Z,0.40
2024-01-24T05:16:53.412Z,0.30
2024-01-24T05:19:48.732Z,0.40
2024-01-24T05:22:41.449Z,0.40
2024-01-24T05:25:14.728Z,0.40
2024-01-24T05:27:47.923Z,0.40
2024-01-24T05:30:34.729Z,0.30
2024-01-24T05:33:11.128Z,0.40
2024-01-24T05:35:47.515Z,0.50
2024-01-24T05:45:26.750Z,0.30
2024-01-24T05:58:46.573Z,0.40
2024-01-24T06:02:13.879Z,0.60
2024-01-24T06:12:08.823Z,0.60
2024-01-24T06:14:58.872Z,0.40
2024-01-24T06:18:54.647Z,0.50
2024-01-24T06:21:30.509Z,0.40
2024-01-24T06:24:11.085Z,0.50
2024-01-24T06:26:49.697Z,0.60
2024-01-24T06:29:18.135Z,0.40
2024-01-24T06:32:15.204Z,0.40
2024-01-24T06:35:04.479Z,0.40
2024-01-24T06:37:37.465Z,0.50
2024-01-24T06:40:26.596Z,0.70
2024-01-24T06:43:20.915Z,0.70
2024-01-24T06:46:01.959Z,0.60
2024-01-24T06:48:31.826Z,1.00
2024-01-24T06:51:01.225Z,0.70
2024-01-24T06:53:29.170Z,0.60
2024-01-24T06:55:57.866Z,1.90
2024-01-24T06:58:25.732Z,0.50
2024-01-24T07:00:54.019Z,0.70
2024-01-24T07:03:23.553Z,0.70
2024-01-24T07:05:52.919Z,0.50
2024-01-24T07:08:21.026Z,0.90
2024-01-24T07:10:49.144Z,0.90
2024-01-24T07:13:19.213Z,0.70
2024-01-24T07:16:25.211Z,0.70
2024-01-24T07:22:45.614Z,1.30
2024-01-24T07:25:13.434Z,0.80
2024-01-24T07:27:42.611Z,0.90
2024-01-24T07:30:11.868Z,0.80
2024-01-24T07:32:48.707Z,1.00
2024-01-24T07:35:20.315Z,0.90
2024-01-24T07:37:49.333Z,1.30
2024-01-24T07:40:22.547Z,1.10
2024-01-24T07:42:55.382Z,1.00
2024-01-24T07:45:25.709Z,1.20
2024-01-24T07:47:57.006Z,1.10
2024-01-24T07:52:57.735Z,1.30
2024-01-24T07:55:32.645Z,2.40
2024-01-24T07:58:10.438Z,1.20
2024-01-24T08:00:43.621Z,4.50
2024-01-24T08:03:21.429Z,1.10
2024-01-24T08:05:54.493Z,1.70
2024-01-24T08:08:33.809Z,1.30
2024-01-24T08:11:09.742Z,1.40
2024-01-24T08:13:38.071Z,1.30
2024-01-24T08:16:09.167Z,1.30
2024-01-24T08:18:44.026Z,1.40
2024-01-24T08:21:19.863Z,1.40
2024-01-24T08:24:00.327Z,1.90
2024-01-24T08:26:49.778Z,2.30
2024-01-24T08:29:38.014Z,1.10
2024-01-24T08:32:21.911Z,1.50
2024-01-24T08:34:53.229Z,1.10
2024-01-24T08:37:33.791Z,1.70
2024-01-24T08:40:17.820Z,1.90
2024-01-24T08:42:52.308Z,1.70
2024-01-24T08:45:20.736Z,2.20
2024-01-24T08:47:50.576Z,2.10
2024-01-24T08:50:24.817Z,1.80
2024-01-24T08:53:05.380Z,3.50
2024-01-24T08:55:43.390Z,2.20
2024-01-24T08:58:16.919Z,2.20
2024-01-24T09:00:50.622Z,2.20
2024-01-24T09:03:37.299Z,2.60
2024-01-24T09:06:31.121Z,2.50
2024-01-24T09:12:29.825Z,2.20
2024-01-24T09:15:31.717Z,1.90
2024-01-24T09:18:36.796Z,2.40
2024-01-24T09:24:25.629Z,2.50
2024-01-24T09:30:52.482Z,2.40
2024-01-24T09:33:33.469Z,2.40
2024-01-24T09:36:30.788Z,2.20
2024-01-24T09:39:28.635Z,2.10
2024-01-24T09:42:01.654Z,2.70
2024-01-24T09:44:37.583Z,2.40
2024-01-24T09:47:11.499Z,2.60
2024-01-24T09:49:43.911Z,3.00
2024-01-24T09:52:36.687Z,2.50
2024-01-24T09:55:09.234Z,2.30
2024-01-24T09:57:40.770Z,2.50
2024-01-24T10:00:22.054Z,2.80
2024-01-24T10:02:59.737Z,3.00
2024-01-24T10:05:51.478Z,2.80
2024-01-24T10:08:23.754Z,2.70
2024-01-24T10:10:55.043Z,3.30
2024-01-24T10:16:15.777Z,3.60
2024-01-24T10:18:51.770Z,3.50
2024-01-24T10:21:27.315Z,3.70
2024-01-24T10:24:07.079Z,3.30
2024-01-24T10:26:40.787Z,3.30
2024-01-24T10:29:12.562Z,2.90
2024-01-24T10:32:26.711Z,4.20
2024-01-24T10:35:05.905Z,3.20
2024-01-24T10:37:50.041Z,3.40
2024-01-24T10:40:40.680Z,4.20
2024-01-24T10:44:21.522Z,3.50
2024-01-24T10:46:53.710Z,3.80
2024-01-24T10:49:59.861Z,3.80
2024-01-24T10:52:41.128Z,3.30
2024-01-24T10:55:14.076Z,3.90
2024-01-24T10:57:55.467Z,3.90
2024-01-24T11:03:24.884Z,3.40
2024-01-24T11:06:05.614Z,3.70
2024-01-24T11:09:02.075Z,3.50
2024-01-24T11:11:54.177Z,3.40
2024-01-24T11:14:49.917Z,4.50
2024-01-24T11:17:28.962Z,4.00
2024-01-24T11:20:09.320Z,3.80
2024-01-24T11:22:45.630Z,3.70
2024-01-24T11:25:16.463Z,4.80
2024-01-24T11:27:49.221Z,4.50
2024-01-24T11:30:44.437Z,3.70
2024-01-24T11:33:20.116Z,3.60
2024-01-24T11:38:53.062Z,4.10
2024-01-24T11:41:35.248Z,3.80
2024-01-24T11:44:15.255Z,4.40
2024-01-24T11:46:50.906Z,4.90
2024-01-24T11:49:29.235Z,3.90
2024-01-24T11:52:11.291Z,4.10
2024-01-24T11:54:52.716Z,3.50
2024-01-24T11:57:31.455Z,3.60
2024-01-24T12:00:00.284Z,4.80
2024-01-24T12:02:31.702Z,4.00
2024-01-24T12:05:00.327Z,4.30
2024-01-24T12:07:28.621Z,3.80
2024-01-24T12:09:57.409Z,4.00
2024-01-24T12:12:38.634Z,4.30
2024-01-24T12:15:28.341Z,4.50
2024-01-24T12:18:53.288Z,3.90
2024-01-24T12:21:12.365Z,4.10
2024-01-24T12:24:00.329Z,4.10
2024-01-24T12:27:48.635Z,3.90
2024-01-24T12:29:47.566Z,3.70
2024-01-24T12:32:18.220Z,3.70
2024-01-24T12:35:12.446Z,3.90
2024-01-24T12:37:50.625Z,4.80
2024-01-24T12:40:43.945Z,3.80
2024-01-24T12:43:18.413Z,3.80
2024-01-24T12:45:55.541Z,4.80
2024-01-24T12:48:27.354Z,5.00
2024-01-24T12:51:03.996Z,4.10
2024-01-24T12:54:02.734Z,4.00
2024-01-24T12:56:35.812Z,4.10
2024-01-24T12:59:08.400Z,4.20
2024-01-24T13:01:39.912Z,3.80
2024-01-24T13:04:12.613Z,4.40
2024-01-24T13:06:41.958Z,4.00
2024-01-24T13:09:23.998Z,4.40
2024-01-24T13:11:56.757Z,4.10
2024-01-24T13:14:25.744Z,4.50
2024-01-24T13:16:53.963Z,4.00
2024-01-24T13:19:26.438Z,4.10
2024-01-24T13:22:09.259Z,3.30
2024-01-24T13:24:42.213Z,4.10
2024-01-24T13:27:23.460Z,3.80
2024-01-24T13:32:33.290Z,3.10
2024-01-24T13:35:12.368Z,3.80
2024-01-24T13:38:02.872Z,3.60
2024-01-24T13:40:32.249Z,3.60
2024-01-24T13:43:01.311Z,3.70
2024-01-24T13:45:30.412Z,3.80
2024-01-24T13:48:01.429Z,3.20
2024-01-24T13:50:29.427Z,3.80
2024-01-24T13:53:00.800Z,3.50
2024-01-24T13:58:15.603Z,3.80
2024-01-24T14:00:44.476Z,4.50
2024-01-24T14:03:16.259Z,3.70
2024-01-24T14:05:47.227Z,3.90
2024-01-24T14:11:03.928Z,3.70
2024-01-24T14:13:42.230Z,3.30
2024-01-24T14:16:20.525Z,3.10
2024-01-24T14:18:53.363Z,3.50
2024-01-24T14:21:22.748Z,4.00
2024-01-24T14:23:53.679Z,3.50
2024-01-24T14:26:23.273Z,4.60
2024-01-24T14:28:53.449Z,3.80
2024-01-24T14:31:23.705Z,3.80
2024-01-24T14:33:51.929Z,3.90
2024-01-24T14:36:22.307Z,3.50
2024-01-24T14:38:50.207Z,4.20
2024-01-24T14:41:18.447Z,3.30
2024-01-24T14:43:46.836Z,3.50
2024-01-24T14:46:17.453Z,4.10
2024-01-24T14:48:45.980Z,4.40
2024-01-24T14:51:22.143Z,3.60
2024-01-24T14:53:52.243Z,3.60
2024-01-24T14:56:20.456Z,4.10
2024-01-24T14:58:48.398Z,3.70
2024-01-24T15:01:20.779Z,3.40
2024-01-24T15:03:51.019Z,4.20
2024-01-24T15:06:25.149Z,4.90
2024-01-24T15:08:53.370Z,3.60
2024-01-24T15:11:21.536Z,4.20
2024-01-24T15:13:49.504Z,3.10
2024-01-24T15:16:21.856Z,3.20
2024-01-24T15:21:33.678Z,4.00
2024-01-24T15:24:10.327Z,3.20
2024-01-24T15:26:38.193Z,2.90
2024-01-24T15:29:06.131Z,3.80
2024-01-24T15:31:34.102Z,3.10
2024-01-24T15:34:05.317Z,3.50
2024-01-24T15:36:34.079Z,3.50
2024-01-24T15:39:05.253Z,2.70
2024-01-24T15:41:35.381Z,2.70
2024-01-24T15:44:03.132Z,4.10
2024-01-24T15:46:31.040Z,2.80
2024-01-24T15:48:58.965Z,2.90
2024-01-24T15:51:26.974Z,3.00
2024-01-24T15:53:54.996Z,3.20
2024-01-24T15:56:25.509Z,3.10
2024-01-24T15:58:53.263Z,2.60
2024-01-24T16:01:23.195Z,2.50
2024-01-24T16:03:54.601Z,4.20
2024-01-24T16:06:27.565Z,4.00
2024-01-24T16:11:22.984Z,2.80
2024-01-24T16:13:51.760Z,2.90
2024-01-24T16:16:19.689Z,3.80
2024-01-24T16:18:50.274Z,2.70
2024-01-24T16:21:18.922Z,2.40
2024-01-24T16:23:47.655Z,2.70
2024-01-24T16:26:15.269Z,2.60
2024-01-24T16:28:44.501Z,2.90
2024-01-24T16:31:12.171Z,2.90
2024-01-24T16:33:40.851Z,2.50
2024-01-24T16:36:08.996Z,2.50
2024-01-24T16:38:36.457Z,2.70
2024-01-24T16:41:04.101Z,3.30
2024-01-24T16:43:34.164Z,2.90
2024-01-24T16:46:01.810Z,2.60
2024-01-24T16:48:29.576Z,2.50
2024-01-24T16:50:57.562Z,3.10
2024-01-24T16:53:25.230Z,2.80
2024-01-24T16:55:53.731Z,3.10
2024-01-24T16:58:21.279Z,3.00
2024-01-24T17:00:48.847Z,2.90
2024-01-24T17:03:16.447Z,3.00
2024-01-24T17:05:43.988Z,2.80
2024-01-24T17:08:12.378Z,2.60
2024-01-24T17:10:39.824Z,3.50
2024-01-24T17:13:08.417Z,2.60
2024-01-24T17:15:36.102Z,2.90
2024-01-24T17:18:06.068Z,3.40
2024-01-24T17:20:34.090Z,4.00
2024-01-24T17:23:01.661Z,3.30
2024-01-24T17:25:30.009Z,3.40
2024-01-24T17:27:58.012Z,3.50
2024-01-24T17:30:25.665Z,2.60
2024-01-24T17:32:53.406Z,3.60
2024-01-24T17:35:21.037Z,2.90
2024-01-24T17:37:48.960Z,3.00
2024-01-24T17:40:17.570Z,3.70
2024-01-24T17:42:45.400Z,3.70
2024-01-24T17:45:12.948Z,2.90
2024-01-24T17:47:42.760Z,2.70
2024-01-24T17:50:11.106Z,3.20
2024-01-24T17:52:42.918Z,2.90
2024-01-24T17:55:10.792Z,3.60
2024-01-24T17:57:38.684Z,2.80
2024-01-24T18:00:07.253Z,3.20
2024-01-24T18:02:34.803Z,3.50
2024-01-24T18:05:02.514Z,3.20
2024-01-24T18:07:31.613Z,3.50
2024-01-24T18:09:59.378Z,3.60
2024-01-24T18:12:27.160Z,2.80
2024-01-24T18:14:54.673Z,3.90
2024-01-24T18:17:22.705Z,3.10
2024-01-24T18:19:50.967Z,3.20
2024-01-24T18:22:18.740Z,3.20
2024-01-24T18:24:47.796Z,3.40
2024-01-24T18:27:15.522Z,3.70
2024-01-24T18:29:44.629Z,3.20
2024-01-24T18:32:13.664Z,3.40
2024-01-24T18:34:41.281Z,3.50
2024-01-24T18:37:09.105Z,3.70
2024-01-24T18:39:36.853Z,3.70
2024-01-24T18:42:04.575Z,3.00
2024-01-24T18:44:32.178Z,3.90
2024-01-24T18:47:00.180Z,4.30
2024-01-24T18:49:28.125Z,3.20
2024-01-24T18:51:55.986Z,3.20
2024-01-24T18:54:23.573Z,4.00
2024-01-24T18:56:52.311Z,4.20
2024-01-24T18:59:19.888Z,3.40
2024-01-24T19:01:49.409Z,4.10
2024-01-24T19:04:19.322Z,3.70
2024-01-24T19:06:47.006Z,3.90
2024-01-24T19:09:15.045Z,3.80
2024-01-24T19:11:42.775Z,4.00
2024-01-24T19:14:10.492Z,3.60
2024-01-24T19:16:38.442Z,3.80
2024-01-24T19:19:06.149Z,3.70
2024-01-24T19:21:33.937Z,4.20
2024-01-24T19:24:01.508Z,4.30
2024-01-24T19:26:34.050Z,4.00
2024-01-24T19:29:01.787Z,3.70
2024-01-24T19:31:29.539Z,3.40
2024-01-24T19:33:58.272Z,2.90
2024-01-24T19:36:25.914Z,4.00
2024-01-24T19:38:54.805Z,3.80
2024-01-24T19:41:24.224Z,4.00
2024-01-24T19:43:51.962Z,3.60
2024-01-24T19:46:20.312Z,4.00
2024-01-24T19:48:48.354Z,4.00
2024-01-24T19:51:15.863Z,4.00
2024-01-24T19:53:44.398Z,3.60
2024-01-24T19:56:11.836Z,3.90
2024-01-24T19:58:39.251Z,3.60
2024-01-24T20:01:06.810Z,3.90
2024-01-24T20:03:35.442Z,4.10
2024-01-24T20:06:03.552Z,4.40
2024-01-24T20:08:31.239Z,4.10
2024-01-24T20:10:59.335Z,4.40
2024-01-24T20:13:27.181Z,4.00
2024-01-24T20:15:58.435Z,4.00
2024-01-24T20:18:26.819Z,4.30
2024-01-24T20:20:55.301Z,3.30
2024-01-24T20:23:23.026Z,3.00
2024-01-24T20:25:50.636Z,2.80
2024-01-24T20:28:21.302Z,2.70
2024-01-24T20:30:49.385Z,2.40
2024-01-24T20:33:17.574Z,3.40
2024-01-24T20:35:45.100Z,2.40
2024-01-24T20:38:12.934Z,2.20
2024-01-24T20:40:40.391Z,2.40
2024-01-24T20:43:08.138Z,2.80
2024-01-24T20:45:35.667Z,1.90
2024-01-24T20:48:07.842Z,1.90
2024-01-24T20:50:42.740Z,2.60
2024-01-24T20:53:10.471Z,2.10
2024-01-24T20:55:38.176Z,2.30
2024-01-24T20:58:06.278Z,2.50
2024-01-24T21:00:34.572Z,3.60
2024-01-24T21:03:02.649Z,2.30
2024-01-24T21:05:30.742Z,2.30
2024-01-24T21:07:59.224Z,2.30
2024-01-24T21:10:27.185Z,2.20
2024-01-24T21:12:58.375Z,2.40
2024-01-24T21:15:25.976Z,3.40
2024-01-24T21:17:57.568Z,2.50
2024-01-24T21:20:25.240Z,2.40
2024-01-24T21:22:52.875Z,2.50
2024-01-24T21:25:20.604Z,3.00
2024-01-24T21:27:48.656Z,2.80
2024-01-24T21:30:16.407Z,2.60
2024-01-24T21:32:44.195Z,2.10
2024-01-24T21:35:12.481Z,2.20
2024-01-24T21:37:40.142Z,2.50
2024-01-24T21:40:08.921Z,2.60
2024-01-24T21:42:36.500Z,2.80
2024-01-24T21:45:04.774Z,2.90
2024-01-24T21:47:32.394Z,2.90
2024-01-24T21:50:00.195Z,3.00
2024-01-24T21:52:27.949Z,3.10
2024-01-24T21:54:57.216Z,3.00
2024-01-24T21:57:25.016Z,2.90
2024-01-24T21:59:52.636Z,2.60
2024-01-24T22:02:20.114Z,2.80
2024-01-24T22:04:47.676Z,3.10
2024-01-24T22:07:15.439Z,2.70
2024-01-24T22:09:43.167Z,3.40
2024-01-24T22:12:12.338Z,2.80
2024-01-24T22:14:39.835Z,3.10
2024-01-24T22:17:07.440Z,2.50
2024-01-24T22:19:35.121Z,3.30
2024-01-24T22:22:02.774Z,3.10
2024-01-24T22:24:30.306Z,3.10
2024-01-24T22:26:57.824Z,2.90
2024-01-24T22:29:25.536Z,3.60
2024-01-24T22:31:53.239Z,3.00
2024-01-24T22:34:21.912Z,2.80
2024-01-24T22:36:49.876Z,3.30
2024-01-24T22:39:17.400Z,3.60
2024-01-24T22:41:45.099Z,2.90
2024-01-24T22:44:12.749Z,2.60
2024-01-24T22:46:41.404Z,2.70
2024-01-24T22:49:09.863Z,3.10
2024-01-24T22:51:39.017Z,3.00
2024-01-24T22:54:08.848Z,2.80
2024-01-24T22:56:36.402Z,3.50
2024-01-24T22:59:04.072Z,2.50
2024-01-24T23:01:32.450Z,2.70
2024-01-24T23:04:00.241Z,2.80
2024-01-24T23:06:28.446Z,3.10
2024-01-24T23:08:56.916Z,3.20
2024-01-24T23:11:24.642Z,3.30
2024-01-24T23:13:52.694Z,2.30
2024-01-24T23:16:21.453Z,2.30
2024-01-24T23:18:51.603Z,2.40
2024-01-24T23:21:19.272Z,2.90
2024-01-24T23:23:47.177Z,2.90
2024-01-24T23:26:14.907Z,2.90
2024-01-24T23:28:42.466Z,3.30
2024-01-24T23:31:10.246Z,2.60
2024-01-24T23:33:37.906Z,3.00
2024-01-24T23:36:06.119Z,3.20
2024-01-24T23:38:33.698Z,2.70
2024-01-24T23:41:01.755Z,3.00
2024-01-24T23:43:29.316Z,3.00
2024-01-24T23:45:56.861Z,3.00
2024-01-24T23:48:24.571Z,2.80
2024-01-24T23:50:52.463Z,2.60
2024-01-24T23:53:20.603Z,2.50
2024-01-24T23:55:50.444Z,2.80
2024-01-24T23:58:20.012Z,3.20
